createdAt,value
2022-10-01T00:02:23.025Z,87.30
2022-10-01T00:08:25.227Z,86.14
2022-10-01T00:14:30.479Z,86.71
2022-10-01T00:20:36.967Z,87.09
2022-10-01T00:26:39.493Z,86.04
2022-10-01T00:32:43.906Z,86.41
2022-10-01T00:39:09.142Z,86.73
2022-10-01T00:45:13.505Z,87.17
2022-10-01T00:51:17.717Z,86.81
2022-10-01T00:57:37.167Z,87.08
2022-10-01T01:03:39.435Z,86.87
2022-10-01T01:09:48.832Z,85.78
2022-10-01T01:16:10.085Z,86.19
2022-10-01T01:22:16.424Z,86.10
2022-10-01T01:28:37.864Z,86.42
2022-10-01T01:34:43.659Z,86.50
2022-10-01T01:40:51.902Z,86.51
2022-10-01T01:46:58.928Z,86.60
2022-10-01T01:53:10.600Z,86.72
2022-10-01T01:59:19.703Z,86.16
2022-10-01T02:06:03.015Z,86.30
2022-10-01T02:12:15.877Z,86.69
2022-10-01T02:18:55.248Z,86.85
2022-10-01T02:24:59.915Z,87.21
2022-10-01T02:31:03.474Z,87.62
2022-10-01T02:37:07.504Z,87.45
2022-10-01T02:43:16.949Z,87.88
2022-10-01T02:49:19.677Z,88.65
2022-10-01T02:55:29.243Z,88.49
2022-10-01T03:01:31.359Z,88.10
2022-10-01T03:07:35.684Z,88.07
2022-10-01T03:13:37.588Z,87.23
2022-10-01T03:19:40.246Z,86.79
2022-10-01T03:25:42.175Z,85.52
2022-10-01T03:31:44.146Z,84.43
2022-10-01T03:37:47.656Z,84.61
2022-10-01T03:43:49.634Z,84.71
2022-10-01T03:49:51.600Z,84.03
2022-10-01T03:55:55.123Z,82.94
2022-10-01T04:01:57.083Z,83.83
2022-10-01T04:07:59.709Z,84.04
2022-10-01T04:14:01.862Z,83.09
2022-10-01T04:20:04.158Z,84.10
2022-10-01T04:26:06.209Z,83.83
2022-10-01T04:32:08.210Z,83.55
2022-10-01T04:38:17.382Z,84.81
2022-10-01T04:44:20.202Z,84.60
2022-10-01T04:50:24.996Z,85.73
2022-10-01T04:56:26.929Z,87.48
2022-10-01T05:02:29.514Z,88.47
2022-10-01T05:08:31.530Z,88.88
2022-10-01T05:14:33.678Z,90.63
2022-10-01T05:20:41.750Z,90.83
2022-10-01T05:26:45.862Z,91.90
2022-10-01T05:33:14.099Z,92.49
2022-10-01T05:39:25.856Z,93.26
2022-10-01T05:45:41.025Z,93.99
2022-10-01T05:51:43.686Z,94.79
2022-10-01T05:57:52.974Z,94.07
2022-10-01T06:03:55.053Z,94.03
2022-10-01T06:09:56.977Z,95.09
2022-10-01T06:15:58.932Z,95.54
2022-10-01T06:22:00.835Z,96.99
2022-10-01T06:28:03.691Z,97.05
2022-10-01T06:34:05.688Z,96.71
2022-10-01T06:40:08.320Z,97.30
2022-10-01T06:46:11.135Z,98.02
2022-10-01T06:52:32.089Z,98.72
2022-10-01T06:58:34.530Z,98.92
2022-10-01T07:04:36.491Z,99.64
2022-10-01T07:10:39.712Z,98.18
2022-10-01T07:16:41.694Z,99.97
2022-10-01T07:22:44.749Z,100.00
2022-10-01T07:28:46.898Z,99.95
2022-10-01T07:34:48.842Z,100.00
2022-10-01T07:40:52.893Z,100.00
2022-10-01T07:46:56.040Z,100.00
2022-10-01T07:52:59.910Z,100.00
2022-10-01T07:59:02.860Z,100.00
2022-10-01T08:05:17.503Z,100.00
2022-10-01T08:11:19.441Z,100.00
2022-10-01T08:17:22.629Z,100.00
2022-10-01T08:23:25.994Z,100.00
2022-10-01T08:29:27.911Z,100.00
2022-10-01T08:35:30.331Z,100.00
2022-10-01T08:42:08.120Z,100.00
2022-10-01T08:48:21.932Z,100.00
2022-10-01T08:54:39.743Z,100.00
2022-10-01T09:00:46.491Z,100.00
2022-10-01T09:07:00.178Z,100.00
2022-10-01T09:13:32.727Z,98.86
2022-10-01T09:20:24.028Z,100.00
2022-10-01T09:26:26.285Z,99.51
2022-10-01T09:32:53.759Z,98.19
2022-10-01T09:39:33.336Z,98.64
2022-10-01T09:45:53.232Z,99.55
2022-10-01T09:52:28.527Z,98.62
2022-10-01T09:58:34.251Z,98.86
2022-10-01T10:04:36.232Z,98.50
2022-10-01T10:10:53.035Z,98.60
2022-10-01T10:16:57.328Z,98.49
2022-10-01T10:23:23.122Z,96.19
2022-10-01T10:29:46.298Z,96.50
2022-10-01T10:36:14.588Z,96.60
2022-10-01T10:42:22.220Z,97.60
2022-10-01T10:48:50.488Z,97.14
2022-10-01T11:01:28.857Z,98.52
2022-10-01T11:07:34.566Z,97.73
2022-10-01T11:14:01.066Z,97.60
2022-10-01T11:20:53.915Z,97.61
2022-10-01T11:27:24.319Z,97.01
2022-10-01T11:33:57.886Z,96.00
2022-10-01T11:40:14.851Z,94.22
2022-10-01T11:47:01.021Z,94.06
2022-10-01T11:53:30.965Z,92.02
2022-10-01T11:59:50.080Z,91.89
2022-10-01T12:05:53.301Z,90.33
2022-10-01T12:12:05.926Z,83.99
2022-10-01T12:18:20.769Z,80.89
2022-10-01T12:24:34.757Z,82.92
2022-10-01T12:30:54.141Z,79.27
2022-10-01T12:37:12.882Z,76.15
2022-10-01T12:43:39.047Z,76.29
2022-10-01T12:50:16.425Z,74.10
2022-10-01T12:56:30.944Z,68.17
2022-10-01T13:04:03.530Z,75.02
2022-10-01T13:10:29.727Z,77.08
2022-10-01T13:16:47.912Z,78.79
2022-10-01T13:23:59.070Z,81.16
2022-10-01T13:30:26.308Z,82.53
2022-10-01T13:36:34.913Z,82.67
2022-10-01T13:42:45.555Z,85.81
2022-10-01T13:48:49.804Z,83.98
2022-10-01T13:54:57.297Z,73.17
2022-10-01T14:01:10.174Z,76.63
2022-10-01T14:07:38.416Z,78.91
2022-10-01T14:29:16.791Z,87.48
2022-10-01T14:35:56.938Z,90.32
2022-10-01T14:41:59.104Z,91.66
2022-10-01T14:48:09.506Z,90.72
2022-10-01T14:54:12.434Z,91.13
2022-10-01T15:00:22.358Z,79.98
2022-10-01T15:06:30.286Z,78.35
2022-10-01T15:12:32.512Z,74.35
2022-10-01T15:18:36.831Z,81.27
2022-10-01T15:24:42.568Z,81.65
2022-10-01T15:30:44.781Z,83.33
2022-10-01T15:36:49.047Z,85.64
2022-10-01T15:43:34.836Z,88.39
2022-10-01T15:49:36.780Z,88.76
2022-10-01T15:55:56.947Z,88.38
2022-10-01T16:02:24.640Z,90.44
2022-10-01T16:08:37.299Z,91.81
2022-10-01T16:14:44.116Z,94.07
2022-10-01T16:20:57.161Z,95.78
2022-10-01T16:27:01.118Z,94.66
2022-10-01T16:33:11.352Z,95.30
2022-10-01T16:39:22.481Z,95.37
2022-10-01T16:45:28.498Z,95.77
2022-10-01T16:51:31.966Z,95.38
2022-10-01T16:57:33.907Z,95.75
2022-10-01T17:03:36.591Z,95.64
2022-10-01T17:09:38.525Z,96.65
2022-10-01T17:15:42.722Z,97.88
2022-10-01T17:21:45.626Z,97.53
2022-10-01T17:27:48.395Z,97.45
2022-10-01T17:33:51.360Z,97.59
2022-10-01T17:39:53.284Z,97.18
2022-10-01T17:46:04.264Z,98.95
2022-10-01T17:52:06.203Z,98.97
2022-10-01T17:58:08.215Z,99.53
2022-10-01T18:04:12.350Z,99.76
2022-10-01T18:10:14.385Z,100.00
2022-10-01T18:16:19.253Z,100.00
2022-10-01T18:22:21.998Z,100.00
2022-10-01T18:28:25.588Z,100.00
2022-10-01T18:34:43.426Z,100.00
2022-10-01T18:40:56.740Z,100.00
2022-10-01T18:48:04.206Z,100.00
2022-10-01T18:54:47.717Z,100.00
2022-10-01T19:01:03.009Z,100.00
2022-10-01T19:07:32.722Z,100.00
2022-10-01T19:15:00.370Z,100.00
2022-10-01T19:21:58.438Z,100.00
2022-10-01T19:28:34.454Z,100.00
2022-10-01T19:35:02.889Z,100.00
2022-10-01T19:41:32.595Z,100.00
2022-10-01T19:48:26.817Z,100.00
2022-10-01T19:54:37.321Z,100.00
2022-10-01T20:00:39.798Z,100.00
2022-10-01T20:08:13.278Z,100.00
2022-10-01T20:15:12.579Z,100.00
2022-10-01T20:21:51.214Z,100.00
2022-10-01T20:28:55.529Z,100.00
2022-10-01T20:35:03.062Z,100.00
2022-10-01T20:41:19.859Z,100.00
2022-10-01T20:47:34.778Z,100.00
2022-10-01T20:53:55.778Z,100.00
2022-10-01T21:00:20.035Z,100.00
2022-10-01T21:06:45.856Z,100.00
2022-10-01T21:13:32.145Z,100.00
2022-10-01T21:27:54.420Z,100.00
2022-10-01T21:34:09.226Z,100.00
2022-10-01T21:40:32.885Z,100.00
2022-10-01T21:47:02.377Z,100.00
2022-10-01T21:53:25.450Z,100.00
2022-10-01T22:06:48.159Z,100.00
2022-10-01T22:12:58.539Z,100.00
2022-10-01T22:19:40.017Z,99.96
2022-10-01T22:26:09.157Z,100.00
2022-10-01T22:32:16.533Z,100.00
2022-10-01T22:38:40.543Z,100.00
2022-10-01T22:52:49.779Z,100.00
2022-10-01T22:59:17.958Z,100.00
2022-10-01T23:05:33.598Z,100.00
2022-10-01T23:12:03.767Z,100.00
2022-10-01T23:18:17.527Z,100.00
2022-10-01T23:24:34.594Z,100.00
2022-10-01T23:31:04.871Z,100.00
2022-10-01T23:37:28.390Z,100.00
2022-10-01T23:43:41.795Z,100.00
2022-10-01T23:49:56.280Z,100.00
2022-10-01T23:56:35.777Z,100.00
